Time;durP1;ratioP1;P1;durP2;ratioP2;P2;SDS_P1;SDS_P2;PMS_P1;PMS_P2;Temp;Humidity;BMP_temperature;BMP_pressure;BME280_temperature;BME280_humidity;BME280_pressure;Samples;Min_cycle;Max_cycle;Signal;HPM_P1;HPM_P2
2021/10/27 00:00:48;;;;;;;24.97;17.27;;;9.10;99.90;;;;;;4991755;28;20455;-94
2021/10/27 00:06:07;;;;;;;27.63;18.77;;;9.00;99.90;;;;;;4987647;28;20448;-94
2021/10/27 00:27:19;;;;;;;22.23;18.10;;;9.20;99.90;;;;;;1155895;23;20721;-91
2021/10/27 00:40:40;;;;;;;25.97;19.80;;;9.30;99.90;;;;;;5044457;28;20472;-94
2021/10/27 00:43:08;;;;;;;25.93;18.67;;;9.30;99.90;;;;;;5031690;23;20489;-89
2021/10/27 00:45:35;;;;;;;23.70;18.53;;;9.30;99.90;;;;;;5005125;28;20494;-89
2021/10/27 00:48:02;;;;;;;23.30;20.40;;;9.30;99.90;;;;;;4994769;28;20448;-90
2021/10/27 00:50:29;;;;;;;22.67;17.73;;;9.30;99.90;;;;;;4993924;28;20493;-89
2021/10/27 00:52:56;;;;;;;30.43;19.23;;;9.30;99.90;;;;;;5007446;28;20464;-89
2021/10/27 00:55:23;;;;;;;25.70;19.40;;;9.30;99.90;;;;;;4993982;28;20800;-89
2021/10/27 00:57:50;;;;;;;31.00;19.70;;;9.30;99.90;;;;;;4991986;28;20443;-89
2021/10/27 01:00:19;;;;;;;25.47;19.90;;;9.30;99.90;;;;;;4993496;28;20450;-89
2021/10/27 01:02:46;;;;;;;22.73;18.80;;;9.30;99.90;;;;;;4993634;28;20467;-89
2021/10/27 01:05:15;;;;;;;23.70;17.37;;;9.30;99.90;;;;;;4996219;28;20496;-89
2021/10/27 01:07:42;;;;;;;21.77;18.73;;;9.30;99.90;;;;;;4996604;28;20439;-89
2021/10/27 01:10:10;;;;;;;19.53;17.20;;;9.30;99.90;;;;;;4996188;28;20447;-89
2021/10/27 01:12:36;;;;;;;22.83;18.50;;;9.30;99.90;;;;;;4997777;28;20454;-89
2021/10/27 01:15:04;;;;;;;25.90;19.33;;;9.30;99.90;;;;;;4998471;28;20822;-89
2021/10/27 01:17:33;;;;;;;21.70;19.30;;;9.30;99.90;;;;;;4996868;28;20470;-89
2021/10/27 01:20:02;;;;;;;23.70;18.60;;;9.20;99.90;;;;;;4992318;28;20458;-90
2021/10/27 01:22:31;;;;;;;21.53;18.97;;;9.20;99.90;;;;;;4996588;28;21015;-89
2021/10/27 01:24:59;;;;;;;19.47;17.30;;;9.20;99.90;;;;;;4994664;28;20490;-89
2021/10/27 01:27:27;;;;;;;22.67;18.50;;;9.20;99.90;;;;;;4996789;28;20447;-89
2021/10/27 01:29:55;;;;;;;20.80;18.57;;;9.10;99.90;;;;;;4996363;28;20447;-90
2021/10/27 01:32:23;;;;;;;22.50;19.87;;;9.10;99.90;;;;;;4996210;28;20466;-90
2021/10/27 01:34:49;;;;;;;37.60;21.83;;;9.10;99.90;;;;;;4996470;28;20443;-89
2021/10/27 01:37:18;;;;;;;30.73;22.30;;;9.10;99.90;;;;;;4995748;28;20546;-90
2021/10/27 01:39:45;;;;;;;25.77;22.80;;;9.00;99.90;;;;;;4992232;28;20455;-90
2021/10/27 01:42:12;;;;;;;26.43;21.70;;;8.90;99.90;;;;;;4994402;28;20492;-89
2021/10/27 01:44:39;;;;;;;28.37;22.53;;;8.90;99.90;;;;;;4997268;28;20534;-90
2021/10/27 01:47:06;;;;;;;25.87;20.10;;;8.80;99.90;;;;;;4996099;28;20485;-89
2021/10/27 01:49:53;;;;;;;27.00;22.97;;;8.80;99.90;;;;;;5008635;28;20451;-89
2021/10/27 01:52:21;;;;;;;28.47;20.37;;;8.70;99.90;;;;;;5002171;28;20467;-90
2021/10/27 01:54:48;;;;;;;27.97;22.50;;;8.70;99.90;;;;;;4997731;28;20762;-89
2021/10/27 01:57:15;;;;;;;29.93;21.20;;;8.70;99.90;;;;;;4998618;28;20447;-90
2021/10/27 01:59:41;;;;;;;26.33;20.83;;;8.60;99.90;;;;;;4996904;28;20446;-90
2021/10/27 02:02:08;;;;;;;32.50;21.03;;;8.60;99.90;;;;;;4995718;28;20852;-89
2021/10/27 02:04:35;;;;;;;33.23;21.10;;;8.60;99.90;;;;;;4995657;28;20503;-89
2021/10/27 02:07:02;;;;;;;24.63;19.27;;;8.60;99.90;;;;;;4991710;28;20452;-89
2021/10/27 02:09:31;;;;;;;24.03;19.60;;;8.60;99.90;;;;;;5017394;28;20465;-89
2021/10/27 02:11:58;;;;;;;23.50;19.20;;;8.60;99.90;;;;;;5006856;28;20484;-89
2021/10/27 02:14:25;;;;;;;23.30;19.60;;;8.60;99.90;;;;;;5008279;28;20885;-90
2021/10/27 02:16:52;;;;;;;26.40;20.23;;;8.60;99.90;;;;;;4997470;28;20490;-87
2021/10/27 02:19:18;;;;;;;25.87;20.80;;;8.50;99.90;;;;;;4995669;28;20884;-89
2021/10/27 02:21:45;;;;;;;30.20;21.80;;;8.50;99.90;;;;;;4995524;28;20471;-88
2021/10/27 02:24:12;;;;;;;28.20;20.47;;;8.50;99.90;;;;;;4996021;28;20491;-87
2021/10/27 02:26:40;;;;;;;26.67;19.67;;;8.50;99.90;;;;;;4996079;28;20446;-86
2021/10/27 02:29:07;;;;;;;28.50;20.23;;;8.50;99.90;;;;;;4995305;28;20447;-87
2021/10/27 02:31:33;;;;;;;25.17;19.80;;;8.40;99.90;;;;;;4993110;28;20518;-88
2021/10/27 02:34:00;;;;;;;25.90;19.00;;;8.40;99.90;;;;;;4995538;28;20435;-87
2021/10/27 02:36:27;;;;;;;20.97;18.70;;;8.40;99.90;;;;;;4999910;28;20439;-87
2021/10/27 02:38:54;;;;;;;21.97;18.53;;;8.40;99.90;;;;;;5009335;28;20446;-87
2021/10/27 02:41:21;;;;;;;22.83;18.80;;;8.40;99.90;;;;;;5002169;28;20462;-87
2021/10/27 02:43:49;;;;;;;20.83;18.47;;;8.30;99.90;;;;;;5016215;28;20440;-86
2021/10/27 02:46:16;;;;;;;20.77;17.67;;;8.30;99.90;;;;;;5003731;28;20487;-87
2021/10/27 02:48:43;;;;;;;23.57;18.37;;;8.30;99.90;;;;;;5003217;28;20447;-87
2021/10/27 02:51:10;;;;;;;26.47;19.00;;;8.30;99.90;;;;;;5009855;28;20447;-87
2021/10/27 02:53:36;;;;;;;22.93;17.90;;;8.30;99.90;;;;;;5002098;28;20446;-87
2021/10/27 02:56:04;;;;;;;23.97;19.90;;;8.30;99.90;;;;;;4996120;28;20444;-87
2021/10/27 02:58:30;;;;;;;28.90;21.40;;;8.30;99.90;;;;;;4996074;28;20447;-87
2021/10/27 03:00:58;;;;;;;29.30;23.43;;;8.30;99.90;;;;;;4994986;28;20494;-87
2021/10/27 03:03:25;;;;;;;25.40;20.20;;;8.30;99.90;;;;;;4994544;28;21126;-87
2021/10/27 03:05:52;;;;;;;24.03;19.37;;;8.30;99.90;;;;;;4993096;28;20479;-88
2021/10/27 03:08:19;;;;;;;25.97;20.27;;;8.30;99.90;;;;;;4993453;28;21096;-88
2021/10/27 03:10:47;;;;;;;23.17;18.70;;;8.30;99.90;;;;;;4994816;28;20443;-88
2021/10/27 03:13:14;;;;;;;23.17;19.43;;;8.40;99.90;;;;;;4993550;28;20498;-87
2021/10/27 03:15:40;;;;;;;23.27;20.47;;;8.40;99.90;;;;;;4993169;28;20853;-89
2021/10/27 03:18:08;;;;;;;33.33;21.50;;;8.40;99.90;;;;;;4994517;28;20462;-89
2021/10/27 03:20:35;;;;;;;32.27;21.77;;;8.30;99.90;;;;;;4992842;28;20440;-89
2021/10/27 03:23:02;;;;;;;26.60;20.00;;;8.30;99.90;;;;;;4994677;28;20463;-89
2021/10/27 03:25:29;;;;;;;24.60;19.53;;;8.30;99.90;;;;;;4994239;28;20882;-89
2021/10/27 03:27:55;;;;;;;26.17;19.87;;;8.30;99.90;;;;;;4993161;28;20443;-90
2021/10/27 03:30:22;;;;;;;28.53;20.20;;;8.30;99.90;;;;;;4994220;28;20444;-89
2021/10/27 03:32:51;;;;;;;27.63;19.40;;;8.20;99.90;;;;;;4992374;28;20478;-90
2021/10/27 03:35:19;;;;;;;27.03;18.90;;;8.20;99.90;;;;;;4992755;28;20460;-90
2021/10/27 03:37:46;;;;;;;28.87;21.93;;;8.20;99.90;;;;;;4994325;28;20439;-90
2021/10/27 03:40:13;;;;;;;22.80;17.90;;;8.20;99.90;;;;;;5010567;28;20469;-89
2021/10/27 03:42:40;;;;;;;26.67;19.97;;;8.20;99.90;;;;;;5011204;28;20471;-90
2021/10/27 03:45:07;;;;;;;23.83;18.90;;;8.20;99.90;;;;;;4994126;28;20514;-89
2021/10/27 03:47:34;;;;;;;21.90;18.10;;;8.20;99.90;;;;;;4993263;28;20454;-90
2021/10/27 03:50:02;;;;;;;23.77;19.00;;;8.20;99.90;;;;;;5003165;28;20423;-89
2021/10/27 03:52:30;;;;;;;21.43;19.20;;;8.20;99.90;;;;;;5019169;28;20502;-89
2021/10/27 03:54:57;;;;;;;29.40;18.03;;;8.20;99.90;;;;;;5018606;28;20442;-89
2021/10/27 03:57:24;;;;;;;26.17;18.50;;;8.20;99.90;;;;;;5018890;28;20427;-88
2021/10/27 03:59:50;;;;;;;22.13;16.40;;;8.10;99.90;;;;;;5016440;28;20571;-90
2021/10/27 04:02:17;;;;;;;20.57;17.50;;;8.00;99.90;;;;;;4999972;28;20491;-89
2021/10/27 04:04:44;;;;;;;26.30;17.70;;;8.00;99.90;;;;;;4995432;28;20482;-89
2021/10/27 04:07:10;;;;;;;26.73;18.47;;;7.90;99.90;;;;;;4993944;28;20439;-89
2021/10/27 04:09:39;;;;;;;25.13;19.67;;;7.90;99.90;;;;;;4995543;28;20458;-90
2021/10/27 04:12:06;;;;;;;26.13;18.40;;;7.90;99.90;;;;;;4995630;28;20471;-89
2021/10/27 04:14:33;;;;;;;22.60;18.47;;;7.80;99.90;;;;;;4994181;28;20451;-89
2021/10/27 04:16:59;;;;;;;22.00;17.60;;;7.80;99.90;;;;;;4996880;28;21000;-89
2021/10/27 04:19:26;;;;;;;21.27;17.70;;;7.70;99.90;;;;;;4995438;28;20447;-91
2021/10/27 04:22:04;;;;;;;21.97;17.97;;;7.80;99.90;;;;;;4993894;28;20884;-90
2021/10/27 04:24:31;;;;;;;24.97;19.43;;;7.70;99.90;;;;;;4994578;28;20941;-90
2021/10/27 04:26:59;;;;;;;24.30;16.93;;;7.70;99.90;;;;;;4996359;28;20466;-89
2021/10/27 04:29:26;;;;;;;22.30;16.53;;;7.70;99.90;;;;;;4994803;28;20956;-89
2021/10/27 04:31:53;;;;;;;23.27;16.67;;;7.70;99.90;;;;;;4995328;28;20470;-90
2021/10/27 04:34:19;;;;;;;21.03;17.87;;;7.60;99.90;;;;;;4995640;28;20955;-89
2021/10/27 04:36:46;;;;;;;21.60;17.80;;;7.60;99.90;;;;;;4997560;28;20450;-89
2021/10/27 04:39:13;;;;;;;20.07;16.83;;;7.50;99.90;;;;;;4999062;28;20462;-88
2021/10/27 04:41:40;;;;;;;17.43;15.37;;;7.50;99.90;;;;;;4999504;28;20553;-89
2021/10/27 04:44:08;;;;;;;23.93;17.60;;;7.40;99.90;;;;;;5000791;28;20458;-89
2021/10/27 04:46:35;;;;;;;25.90;17.17;;;7.30;99.90;;;;;;4998025;28;20505;-89
2021/10/27 04:49:02;;;;;;;17.43;15.57;;;7.30;99.90;;;;;;4997234;28;20443;-88
2021/10/27 04:51:28;;;;;;;21.00;16.17;;;7.30;99.90;;;;;;4996077;28;20518;-88
2021/10/27 04:53:55;;;;;;;18.23;15.30;;;7.30;99.90;;;;;;4998982;28;20438;-89
2021/10/27 04:56:22;;;;;;;22.97;17.27;;;7.30;99.90;;;;;;4997826;28;20435;-89
2021/10/27 04:58:49;;;;;;;22.90;16.80;;;7.20;99.90;;;;;;4996269;28;20689;-89
2021/10/27 05:01:17;;;;;;;20.93;17.00;;;7.20;99.90;;;;;;4997067;28;20921;-88
2021/10/27 05:03:45;;;;;;;27.03;18.00;;;7.20;99.90;;;;;;4998959;28;20454;-88
2021/10/27 05:06:12;;;;;;;23.40;17.10;;;7.20;99.90;;;;;;4998728;28;20478;-89
2021/10/27 05:08:39;;;;;;;22.90;16.97;;;7.20;99.90;;;;;;4999240;28;20447;-89
2021/10/27 05:11:06;;;;;;;21.23;17.47;;;7.20;99.90;;;;;;4996253;28;20482;-89
2021/10/27 05:13:33;;;;;;;21.70;16.63;;;7.20;99.90;;;;;;4997812;28;20451;-89
2021/10/27 05:15:59;;;;;;;19.70;17.40;;;7.10;99.90;;;;;;4996999;28;20446;-88
2021/10/27 05:18:27;;;;;;;21.57;17.53;;;7.20;99.90;;;;;;5005369;28;20443;-89
2021/10/27 05:20:54;;;;;;;19.40;15.63;;;7.10;99.90;;;;;;5011471;28;20446;-89
2021/10/27 05:23:21;;;;;;;20.60;17.07;;;7.10;99.90;;;;;;5004580;28;20451;-89
2021/10/27 05:25:48;;;;;;;20.87;18.33;;;7.00;99.90;;;;;;5000710;28;20491;-89
2021/10/27 05:28:14;;;;;;;22.83;16.77;;;7.00;99.90;;;;;;5000597;28;20447;-90
2021/10/27 05:30:41;;;;;;;22.40;18.80;;;7.10;99.90;;;;;;5016593;28;20423;-90
2021/10/27 05:33:08;;;;;;;20.70;16.77;;;7.10;99.90;;;;;;5007872;28;20530;-87
2021/10/27 05:35:42;;;;;;;22.00;17.57;;;7.00;99.90;;;;;;5012533;28;20427;-87
2021/10/27 05:38:09;;;;;;;19.60;17.27;;;7.00;99.90;;;;;;5017665;28;20431;-90
2021/10/27 05:40:36;;;;;;;21.50;17.93;;;7.00;99.90;;;;;;5014704;28;20442;-90
2021/10/27 05:43:11;;;;;;;19.23;17.20;;;7.00;99.90;;;;;;5008529;28;20490;-90
2021/10/27 05:45:38;;;;;;;23.57;19.73;;;7.10;99.90;;;;;;4997195;28;20466;-90
2021/10/27 05:48:06;;;;;;;26.33;17.40;;;7.10;99.90;;;;;;4996326;28;20483;-89
2021/10/27 05:50:39;;;;;;;22.37;17.43;;;7.10;99.90;;;;;;4995094;28;20845;-91
2021/10/27 05:55:51;;;;;;;32.67;19.50;;;7.10;99.90;;;;;;4997117;28;20939;-89
2021/10/27 05:58:18;;;;;;;28.53;17.77;;;7.10;99.90;;;;;;4995535;28;20458;-87
2021/10/27 06:00:46;;;;;;;23.27;18.70;;;7.10;99.90;;;;;;4997801;28;20931;-89
2021/10/27 06:03:13;;;;;;;21.00;15.80;;;7.10;99.90;;;;;;4996715;28;20471;-88
2021/10/27 06:05:40;;;;;;;19.40;15.70;;;7.00;99.90;;;;;;4996126;28;20467;-88
2021/10/27 06:08:15;;;;;;;18.57;16.40;;;7.00;99.90;;;;;;4992857;28;20451;-87
2021/10/27 06:10:42;;;;;;;19.50;15.23;;;7.10;99.90;;;;;;4994280;28;20451;-87
2021/10/27 06:13:12;;;;;;;19.20;16.10;;;7.00;99.90;;;;;;4995799;28;20498;-87
2021/10/27 06:15:39;;;;;;;16.80;15.10;;;7.10;99.90;;;;;;4994465;28;20474;-87
2021/10/27 06:18:06;;;;;;;19.47;16.10;;;7.00;99.90;;;;;;4993651;28;20439;-87
2021/10/27 06:20:33;;;;;;;17.63;15.73;;;7.10;99.90;;;;;;4996119;28;20442;-88
2021/10/27 06:23:00;;;;;;;19.83;16.13;;;7.10;99.90;;;;;;4996135;28;20465;-89
2021/10/27 06:25:28;;;;;;;16.53;14.80;;;7.20;99.90;;;;;;4998846;28;20485;-88
2021/10/27 06:28:01;;;;;;;18.93;14.70;;;7.30;99.90;;;;;;4997106;28;20472;-88
2021/10/27 06:30:31;;;;;;;21.00;14.87;;;7.40;99.90;;;;;;4995325;28;20451;-89
2021/10/27 06:33:05;;;;;;;19.93;16.07;;;7.50;99.90;;;;;;4996756;28;20558;-89
2021/10/27 06:35:33;;;;;;;16.57;14.77;;;7.60;99.90;;;;;;4996120;28;21010;-87
2021/10/27 06:46:33;;;;;;;18.80;14.73;;;7.50;99.90;;;;;;4995222;28;20479;-89
2021/10/27 06:48:59;;;;;;;22.90;16.30;;;7.50;99.90;;;;;;4996664;28;21094;-89
2021/10/27 06:51:26;;;;;;;18.70;16.67;;;7.60;99.90;;;;;;4996874;28;20439;-90
2021/10/27 06:53:53;;;;;;;18.30;15.87;;;7.60;99.90;;;;;;4995697;28;20466;-88
2021/10/27 06:56:23;;;;;;;19.70;15.43;;;7.60;99.90;;;;;;4994457;28;20443;-87
2021/10/27 06:58:54;;;;;;;18.57;15.53;;;7.70;99.90;;;;;;4992240;28;20447;-87
2021/10/27 07:01:24;;;;;;;23.60;17.23;;;7.70;99.90;;;;;;4993531;28;20446;-87
2021/10/27 07:04:13;;;;;;;18.43;15.93;;;7.70;99.90;;;;;;4993949;28;20964;-89
2021/10/27 07:15:01;;;;;;;20.67;15.47;;;7.80;99.90;;;;;;5009854;28;20497;-85
2021/10/27 07:17:33;;;;;;;24.97;14.70;;;7.70;99.90;;;;;;5007369;28;20438;-89
2021/10/27 07:20:00;;;;;;;21.30;15.70;;;7.70;99.90;;;;;;5014984;28;20462;-87
2021/10/27 07:22:27;;;;;;;21.30;15.70;;;7.80;99.90;;;;;;5018460;28;20459;-87
2021/10/27 07:24:54;;;;;;;17.00;15.27;;;7.80;99.90;;;;;;5012873;28;20425;-86
2021/10/27 07:27:22;;;;;;;17.70;14.90;;;7.80;99.90;;;;;;5000959;28;20895;-87
2021/10/27 07:29:49;;;;;;;17.20;15.40;;;7.90;99.90;;;;;;4991957;28;20512;-86
2021/10/27 07:32:17;;;;;;;21.33;14.17;;;7.90;99.90;;;;;;4994845;28;20463;-86
2021/10/27 07:34:48;;;;;;;18.20;14.53;;;8.00;99.90;;;;;;4993390;28;20447;-86
2021/10/27 07:42:52;;;;;;;17.50;15.57;;;8.20;99.90;;;;;;4992472;28;20453;-87
2021/10/27 07:45:22;;;;;;;15.73;13.43;;;8.10;99.90;;;;;;4990512;28;20986;-88
2021/10/27 07:47:49;;;;;;;15.60;13.77;;;8.20;99.90;;;;;;4994792;28;21081;-86
2021/10/27 07:55:29;;;;;;;16.60;14.90;;;8.30;99.90;;;;;;5002123;28;20479;-93
2021/10/27 07:57:59;;;;;;;15.57;13.97;;;8.30;99.90;;;;;;5001830;28;20451;-93
2021/10/27 08:00:26;;;;;;;16.17;14.03;;;8.30;99.90;;;;;;5000853;28;20589;-92
2021/10/27 08:02:59;;;;;;;17.77;16.07;;;8.40;99.90;;;;;;4999676;28;20870;-93
2021/10/27 08:05:44;;;;;;;16.80;15.10;;;8.60;99.90;;;;;;5001467;28;20447;-92
2021/10/27 08:11:17;;;;;;;20.50;14.40;;;9.70;99.90;;;;;;5014888;28;20447;-91
2021/10/27 08:13:53;;;;;;;17.20;15.30;;;10.30;99.90;;;;;;5013239;28;20924;-92
2021/10/27 08:16:21;;;;;;;14.40;13.00;;;10.40;99.90;;;;;;5018648;28;20430;-88
2021/10/27 08:19:23;;;;;;;14.80;12.67;;;10.50;99.90;;;;;;5006943;28;20459;-89
2021/10/27 08:21:50;;;;;;;17.50;12.87;;;10.70;99.90;;;;;;5022623;23;20599;-92
2021/10/27 08:24:22;;;;;;;13.87;12.60;;;10.70;99.90;;;;;;4972441;28;20448;-88
2021/10/27 08:26:53;;;;;;;14.63;13.13;;;10.60;99.90;;;;;;4947757;29;21062;-87
2021/10/27 08:29:26;;;;;;;15.37;13.97;;;10.40;99.90;;;;;;4952364;29;20856;-86
2021/10/27 08:31:57;;;;;;;15.47;13.97;;;10.30;99.90;;;;;;4960709;29;20518;-86
2021/10/27 08:34:35;;;;;;;15.73;14.13;;;10.20;99.90;;;;;;4966252;29;20954;-85
2021/10/27 08:37:02;;;;;;;15.13;13.73;;;10.10;99.90;;;;;;4964652;29;20555;-89
2021/10/27 08:39:29;;;;;;;17.40;15.40;;;10.00;99.90;;;;;;4948157;28;20438;-88
2021/10/27 08:41:58;;;;;;;17.13;14.37;;;9.90;99.90;;;;;;4961037;29;20475;-90
2021/10/27 08:52:14;;;;;;;15.90;13.90;;;10.90;99.90;;;;;;4704833;26;20465;-89
2021/10/27 08:54:42;;;;;;;19.97;15.20;;;10.90;99.90;;;;;;5032838;28;20465;-88
2021/10/27 08:57:10;;;;;;;16.07;14.43;;;10.70;99.90;;;;;;5039626;28;20445;-86
2021/10/27 08:59:48;;;;;;;14.23;12.83;;;10.50;99.90;;;;;;5034947;28;20453;-87
2021/10/27 09:02:28;;;;;;;14.30;12.90;;;10.60;99.90;;;;;;5030801;28;20518;-88
2021/10/27 09:05:11;;;;;;;15.40;14.00;;;10.70;99.90;;;;;;5033744;28;20458;-89
2021/10/27 09:08:05;;;;;;;15.43;13.37;;;10.80;99.90;;;;;;5040865;28;20524;-86
2021/10/27 09:38:57;;;;;;;13.93;12.57;;;12.00;99.90;;;;;;5029507;28;20458;-87
2021/10/27 09:41:56;;;;;;;15.43;13.83;;;12.10;99.90;;;;;;5040232;28;20477;-87
2021/10/27 10:04:12;;;;;;;13.10;10.93;;;13.90;99.90;;;;;;5026090;28;20437;-88
2021/10/27 10:06:40;;;;;;;10.40;9.40;;;15.80;99.90;;;;;;5019032;28;20496;-88
2021/10/27 10:09:08;;;;;;;11.40;10.30;;;18.10;99.20;;;;;;5017540;28;20480;-86
2021/10/27 10:11:36;;;;;;;11.33;9.80;;;19.50;94.40;;;;;;5025291;28;20470;-89
2021/10/27 10:14:07;;;;;;;13.53;11.33;;;20.40;92.00;;;;;;5017588;28;20457;-88
2021/10/27 10:16:38;;;;;;;12.63;11.53;;;21.50;88.60;;;;;;5017057;28;20824;-87
2021/10/27 10:19:12;;;;;;;12.87;10.30;;;22.90;84.70;;;;;;5030520;28;20422;-86
2021/10/27 10:21:41;;;;;;;12.80;11.50;;;23.60;79.90;;;;;;5023075;28;20470;-86
2021/10/27 10:24:34;;;;;;;12.93;9.20;;;23.70;75.10;;;;;;5018017;28;20455;-87
2021/10/27 10:27:05;;;;;;;12.70;11.50;;;24.50;73.10;;;;;;5016841;28;20534;-87
2021/10/27 10:29:59;;;;;;;12.13;11.13;;;24.00;72.80;;;;;;5022239;28;20455;-87
2021/10/27 10:32:32;;;;;;;13.27;11.60;;;24.80;71.60;;;;;;5038590;28;20470;-87
2021/10/27 10:35:03;;;;;;;12.30;11.00;;;25.40;68.10;;;;;;5035976;28;20581;-88
2021/10/27 10:37:34;;;;;;;11.53;10.40;;;26.10;66.50;;;;;;5038892;28;20462;-87
2021/10/27 10:40:07;;;;;;;11.43;10.40;;;25.60;63.40;;;;;;5037442;28;20440;-87
2021/10/27 10:42:55;;;;;;;9.57;8.53;;;25.80;65.40;;;;;;5029950;28;20434;-89
2021/10/27 10:57:24;;;;;;;8.80;8.00;;;24.30;66.20;;;;;;5034797;28;20423;-88
2021/10/27 11:00:51;;;;;;;9.50;8.60;;;24.40;65.90;;;;;;5022039;28;20471;-89
2021/10/27 11:03:40;;;;;;;9.77;8.43;;;25.10;66.00;;;;;;5020759;28;20441;-88
2021/10/27 11:23:16;;;;;;;10.13;7.83;;;27.50;56.10;;;;;;5027958;28;20492;-88
2021/10/27 11:25:53;;;;;;;7.63;6.17;;;27.50;56.50;;;;;;5025563;28;20442;-88
2021/10/27 11:40:10;;;;;;;8.97;7.50;;;27.80;54.50;;;;;;5018495;28;20700;-89
2021/10/27 11:42:48;;;;;;;8.00;7.20;;;28.30;54.30;;;;;;5022982;28;20457;-89
2021/10/27 11:45:27;;;;;;;8.63;7.80;;;28.90;53.20;;;;;;5022054;28;20438;-89
2021/10/27 11:47:57;;;;;;;4.87;4.47;;;28.90;52.60;;;;;;5025429;28;20512;-88
2021/10/27 11:50:32;;;;;;;5.90;3.83;;;28.50;51.80;;;;;;5021833;28;20465;-89
2021/10/27 11:53:05;;;;;;;4.90;4.33;;;27.20;52.90;;;;;;5022660;28;20496;-89
2021/10/27 11:55:33;;;;;;;5.03;3.70;;;28.20;53.70;;;;;;5022722;28;20441;-89
2021/10/27 11:58:01;;;;;;;5.10;3.93;;;28.40;52.70;;;;;;5021431;28;20508;-89
2021/10/27 12:00:33;;;;;;;4.20;3.80;;;28.60;51.70;;;;;;5020805;28;20474;-88
2021/10/27 12:03:06;;;;;;;4.73;4.23;;;29.00;50.30;;;;;;5021928;28;20453;-87
2021/10/27 12:05:39;;;;;;;4.60;4.10;;;29.40;49.90;;;;;;5022754;28;20507;-88
2021/10/27 12:13:44;;;;;;;4.70;3.50;;;26.80;51.80;;;;;;5017905;28;20448;-88
2021/10/27 12:16:29;;;;;;;7.03;4.07;;;25.50;54.00;;;;;;5021988;28;20508;-88
2021/10/27 12:19:00;;;;;;;4.80;3.17;;;24.90;55.50;;;;;;5014910;28;20461;-87
2021/10/27 12:21:28;;;;;;;4.53;3.63;;;24.70;56.00;;;;;;5016022;28;20477;-88
2021/10/27 12:23:58;;;;;;;4.10;3.30;;;24.30;56.30;;;;;;5016970;28;20814;-87
2021/10/27 12:26:26;;;;;;;3.43;2.53;;;23.50;56.30;;;;;;5024676;28;20452;-88
2021/10/27 12:29:08;;;;;;;6.27;3.60;;;22.60;56.80;;;;;;5019768;28;20957;-87
2021/10/27 12:31:35;;;;;;;8.23;5.13;;;22.40;59.40;;;;;;5023920;28;20478;-87
2021/10/27 12:34:02;;;;;;;6.27;3.97;;;22.10;60.70;;;;;;5028727;28;20451;-87
2021/10/27 12:36:31;;;;;;;7.43;3.40;;;22.00;60.90;;;;;;5019607;28;20448;-89
2021/10/27 12:39:16;;;;;;;5.83;3.70;;;21.90;61.00;;;;;;5016466;28;20454;-88
2021/10/27 12:41:48;;;;;;;6.97;4.40;;;21.20;62.80;;;;;;5015798;28;20578;-88
2021/10/27 12:44:20;;;;;;;6.03;3.77;;;20.70;65.30;;;;;;5016221;28;20478;-89
2021/10/27 12:46:48;;;;;;;7.33;3.80;;;20.60;66.00;;;;;;5016256;28;20460;-88
2021/10/27 12:49:22;;;;;;;9.77;4.20;;;21.00;65.70;;;;;;5018531;28;20464;-88
2021/10/27 12:51:49;;;;;;;5.00;4.30;;;21.30;65.50;;;;;;5035876;28;20455;-87
2021/10/27 12:54:28;;;;;;;5.70;3.20;;;21.90;64.70;;;;;;5036937;28;20438;-87
2021/10/27 12:57:04;;;;;;;3.80;3.20;;;21.70;64.10;;;;;;5034405;28;20442;-87
2021/10/27 12:59:33;;;;;;;4.77;3.63;;;21.70;64.50;;;;;;5039149;28;20458;-88
2021/10/27 13:02:11;;;;;;;7.87;4.03;;;22.10;65.70;;;;;;5033831;28;20498;-88
2021/10/27 13:04:44;;;;;;;4.73;3.70;;;22.80;63.60;;;;;;5026903;28;20541;-89
2021/10/27 13:07:19;;;;;;;7.20;3.80;;;24.00;60.50;;;;;;5039889;28;20488;-87
2021/10/27 13:10:06;;;;;;;5.30;3.90;;;24.70;58.70;;;;;;5027531;28;20460;-88
2021/10/27 13:12:56;;;;;;;4.50;3.00;;;25.00;57.80;;;;;;5024839;28;20508;-88
2021/10/27 13:15:41;;;;;;;7.37;4.97;;;25.50;56.70;;;;;;5038334;28;20442;-87
2021/10/27 13:18:38;;;;;;;4.57;4.17;;;25.80;57.10;;;;;;5039791;28;20476;-86
2021/10/27 13:21:23;;;;;;;5.57;4.10;;;24.80;57.40;;;;;;5038615;28;20461;-86
2021/10/27 13:29:39;;;;;;;4.73;4.20;;;22.40;61.10;;;;;;5021383;28;20519;-88
2021/10/27 13:32:10;;;;;;;5.97;2.80;;;22.70;61.10;;;;;;5021945;28;20512;-88
2021/10/27 13:34:37;;;;;;;9.50;3.20;;;22.70;60.50;;;;;;5023528;28;20439;-88
2021/10/27 13:37:04;;;;;;;3.97;3.53;;;22.70;61.30;;;;;;5029170;28;20454;-88
2021/10/27 13:39:31;;;;;;;5.50;5.00;;;22.70;60.80;;;;;;5019998;28;20467;-87
2021/10/27 13:42:03;;;;;;;4.73;4.17;;;22.50;61.40;;;;;;5018567;28;20467;-88
2021/10/27 13:44:36;;;;;;;5.17;3.00;;;22.30;62.20;;;;;;5019985;28;20510;-88
2021/10/27 13:47:14;;;;;;;5.13;3.20;;;22.40;62.60;;;;;;5024135;28;20470;-88
2021/10/27 14:07:48;;;;;;;4.83;2.53;;;21.40;64.30;;;;;;5006457;28;20501;-90
2021/10/27 14:13:10;;;;;;;3.47;2.83;;;20.90;64.90;;;;;;5008072;23;20560;-92
2021/10/27 14:16:25;;;;;;;5.80;2.47;;;20.70;66.10;;;;;;4998680;28;20457;-92
2021/10/27 14:19:11;;;;;;;2.37;2.00;;;20.40;66.10;;;;;;4998454;28;20459;-92
2021/10/27 14:22:39;;;;;;;2.37;1.90;;;20.30;67.50;;;;;;4997781;28;20493;-91
2021/10/27 14:39:23;;;;;;;3.83;2.93;;;20.20;67.40;;;;;;5022158;28;20424;-88
2021/10/27 15:20:22;;;;;;;8.40;2.33;;;17.80;74.80;;;;;;5026736;28;20443;-89
2021/10/27 15:23:02;;;;;;;5.07;2.93;;;17.70;74.30;;;;;;5032588;28;20456;-89
2021/10/27 15:25:47;;;;;;;3.97;3.67;;;17.60;75.10;;;;;;5020328;28;20477;-87
2021/10/27 15:28:25;;;;;;;6.57;4.43;;;17.50;75.80;;;;;;5018218;28;20491;-87
2021/10/27 15:31:16;;;;;;;8.63;4.73;;;17.40;76.90;;;;;;5020728;28;20533;-88
2021/10/27 15:34:01;;;;;;;3.43;3.13;;;17.30;77.40;;;;;;5021131;28;20987;-86
2021/10/27 15:36:44;;;;;;;3.17;2.77;;;17.30;77.90;;;;;;5020703;28;20477;-88
2021/10/27 15:42:08;;;;;;;4.00;3.60;;;17.10;78.60;;;;;;5016995;28;20476;-89
2021/10/27 15:44:43;;;;;;;5.27;3.80;;;17.00;78.60;;;;;;5015245;28;20854;-89
2021/10/27 15:52:40;;;;;;;4.90;3.90;;;16.80;80.10;;;;;;5035263;28;20437;-88
2021/10/27 15:55:08;;;;;;;6.57;4.10;;;16.80;81.00;;;;;;5025812;28;20472;-89
2021/10/27 15:57:35;;;;;;;4.47;2.90;;;16.70;81.80;;;;;;5016167;28;20458;-89
2021/10/27 16:00:02;;;;;;;3.53;3.23;;;16.60;82.20;;;;;;5014958;28;20450;-89
2021/10/27 16:02:28;;;;;;;4.00;3.60;;;16.50;83.00;;;;;;5015749;28;20942;-89
2021/10/27 16:04:56;;;;;;;5.60;4.50;;;16.40;84.00;;;;;;5016806;28;20470;-89
2021/10/27 16:07:24;;;;;;;4.80;3.57;;;16.30;85.00;;;;;;5017379;28;20447;-89
2021/10/27 16:09:59;;;;;;;5.80;4.40;;;16.10;85.80;;;;;;5015493;28;20465;-88
2021/10/27 16:12:27;;;;;;;5.30;4.40;;;16.00;86.60;;;;;;5016923;28;20451;-89
2021/10/27 16:14:54;;;;;;;8.73;7.60;;;15.90;87.30;;;;;;5019402;28;20471;-88
2021/10/27 16:17:21;;;;;;;11.50;6.97;;;15.80;88.00;;;;;;5014523;28;20449;-90
2021/10/27 16:19:48;;;;;;;7.00;6.00;;;15.70;88.90;;;;;;5021479;28;20522;-87
2021/10/27 16:22:15;;;;;;;6.37;4.90;;;15.60;90.10;;;;;;5023017;28;20458;-88
2021/10/27 16:24:41;;;;;;;5.53;4.33;;;15.50;90.60;;;;;;5016516;28;20478;-88
2021/10/27 16:27:10;;;;;;;5.47;3.97;;;15.40;90.90;;;;;;5014383;28;20458;-88
2021/10/27 16:29:37;;;;;;;3.70;3.37;;;15.30;91.20;;;;;;5013980;28;20513;-87
2021/10/27 16:32:04;;;;;;;4.93;3.20;;;15.20;91.50;;;;;;5015998;28;20944;-87
2021/10/27 16:34:31;;;;;;;4.73;3.67;;;15.10;91.70;;;;;;5017979;28;20505;-88
2021/10/27 16:36:58;;;;;;;4.70;4.13;;;15.00;92.10;;;;;;5020021;28;20450;-88
2021/10/27 16:39:25;;;;;;;6.20;4.27;;;15.00;92.90;;;;;;5023206;28;20438;-88
2021/10/27 16:41:51;;;;;;;4.73;4.20;;;15.00;93.20;;;;;;5020438;28;20471;-87
2021/10/27 16:44:20;;;;;;;11.10;4.83;;;14.80;93.50;;;;;;5020701;28;20488;-88
2021/10/27 16:46:47;;;;;;;6.47;5.20;;;14.70;93.90;;;;;;5018932;28;20453;-88
2021/10/27 16:49:14;;;;;;;7.20;5.00;;;14.60;94.30;;;;;;5019650;28;20489;-87
2021/10/27 16:51:40;;;;;;;9.13;5.10;;;14.50;94.80;;;;;;5020613;28;20430;-89
2021/10/27 16:54:07;;;;;;;9.43;5.37;;;14.50;95.40;;;;;;5020941;28;20990;-88
2021/10/27 16:56:34;;;;;;;12.53;6.07;;;14.30;95.70;;;;;;5020643;28;20446;-90
2021/10/27 16:59:01;;;;;;;7.17;4.90;;;14.30;96.50;;;;;;5031451;28;20430;-87
2021/10/27 17:01:29;;;;;;;8.47;6.27;;;14.20;96.80;;;;;;5035893;28;20443;-88
2021/10/27 17:03:56;;;;;;;7.73;6.30;;;14.10;97.60;;;;;;5021492;28;20564;-88
2021/10/27 17:06:23;;;;;;;8.37;6.17;;;14.00;98.00;;;;;;5026844;28;20964;-88
2021/10/27 17:08:52;;;;;;;8.83;6.40;;;13.90;98.50;;;;;;5028263;28;20511;-88
2021/10/27 17:11:18;;;;;;;11.10;5.90;;;13.70;99.20;;;;;;5024982;28;20456;-88